sensor_id;sensor_type;location;lat;lon;timestamp;P1;durP1;ratioP1;P2;durP2;ratioP2
2039;SDS011;1025;42.686;23.350;2023-04-30T00:02:21;15.87;;;14.43;;
2039;SDS011;1025;42.686;23.350;2023-04-30T00:04:48;14.90;;;13.40;;
2039;SDS011;1025;42.686;23.350;2023-04-30T00:07:14;15.73;;;13.03;;
2039;SDS011;1025;42.686;23.350;2023-04-30T00:09:41;17.37;;;13.83;;
2039;SDS011;1025;42.686;23.350;2023-04-30T00:12:07;14.70;;;12.63;;
2039;SDS011;1025;42.686;23.350;2023-04-30T00:14:35;13.70;;;12.23;;
2039;SDS011;1025;42.686;23.350;2023-04-30T00:17:02;15.43;;;13.87;;
2039;SDS011;1025;42.686;23.350;2023-04-30T00:19:28;18.13;;;13.00;;
2039;SDS011;1025;42.686;23.350;2023-04-30T00:21:55;17.00;;;13.27;;
2039;SDS011;1025;42.686;23.350;2023-04-30T00:24:21;12.73;;;11.57;;
2039;SDS011;1025;42.686;23.350;2023-04-30T00:26:48;13.03;;;11.63;;
2039;SDS011;1025;42.686;23.350;2023-04-30T00:29:14;15.40;;;13.80;;
2039;SDS011;1025;42.686;23.350;2023-04-30T00:31:42;13.73;;;11.40;;
2039;SDS011;1025;42.686;23.350;2023-04-30T00:34:09;17.93;;;11.07;;
2039;SDS011;1025;42.686;23.350;2023-04-30T00:36:35;12.77;;;11.53;;
2039;SDS011;1025;42.686;23.350;2023-04-30T00:39:02;12.50;;;11.30;;
2039;SDS011;1025;42.686;23.350;2023-04-30T00:41:28;15.07;;;12.63;;
2039;SDS011;1025;42.686;23.350;2023-04-30T00:43:55;14.97;;;13.60;;
2039;SDS011;1025;42.686;23.350;2023-04-30T00:46:22;14.10;;;12.70;;
2039;SDS011;1025;42.686;23.350;2023-04-30T00:48:50;20.13;;;12.40;;
2039;SDS011;1025;42.686;23.350;2023-04-30T00:51:16;11.63;;;9.97;;
2039;SDS011;1025;42.686;23.350;2023-04-30T00:53:43;11.50;;;10.43;;
2039;SDS011;1025;42.686;23.350;2023-04-30T00:56:09;13.17;;;11.77;;
2039;SDS011;1025;42.686;23.350;2023-04-30T00:58:36;15.07;;;11.30;;
2039;SDS011;1025;42.686;23.350;2023-04-30T01:01:02;10.63;;;9.63;;
2039;SDS011;1025;42.686;23.350;2023-04-30T01:03:29;11.50;;;10.00;;
2039;SDS011;1025;42.686;23.350;2023-04-30T01:05:57;13.50;;;10.50;;
2039;SDS011;1025;42.686;23.350;2023-04-30T01:08:23;15.53;;;13.00;;
2039;SDS011;1025;42.686;23.350;2023-04-30T01:10:51;9.73;;;8.80;;
2039;SDS011;1025;42.686;23.350;2023-04-30T01:13:21;11.00;;;9.90;;
2039;SDS011;1025;42.686;23.350;2023-04-30T01:15:53;10.40;;;9.43;;
2039;SDS011;1025;42.686;23.350;2023-04-30T01:18:24;13.63;;;10.70;;
2039;SDS011;1025;42.686;23.350;2023-04-30T01:21:01;10.67;;;9.60;;
2039;SDS011;1025;42.686;23.350;2023-04-30T01:23:35;11.13;;;9.40;;
2039;SDS011;1025;42.686;23.350;2023-04-30T01:26:06;10.97;;;9.87;;
2039;SDS011;1025;42.686;23.350;2023-04-30T01:28:37;12.10;;;10.80;;
2039;SDS011;1025;42.686;23.350;2023-04-30T01:31:10;10.80;;;9.63;;
2039;SDS011;1025;42.686;23.350;2023-04-30T01:33:36;11.80;;;10.63;;
2039;SDS011;1025;42.686;23.350;2023-04-30T01:39:01;13.53;;;10.50;;
2039;SDS011;1025;42.686;23.350;2023-04-30T01:41:31;13.30;;;11.10;;
2039;SDS011;1025;42.686;23.350;2023-04-30T01:44:03;12.07;;;10.43;;
2039;SDS011;1025;42.686;23.350;2023-04-30T01:46:32;12.60;;;11.20;;
2039;SDS011;1025;42.686;23.350;2023-04-30T01:49:02;14.80;;;11.60;;
2039;SDS011;1025;42.686;23.350;2023-04-30T01:51:32;12.40;;;11.20;;
2039;SDS011;1025;42.686;23.350;2023-04-30T01:54:01;12.27;;;10.80;;
2039;SDS011;1025;42.686;23.350;2023-04-30T01:56:30;14.47;;;10.87;;
2039;SDS011;1025;42.686;23.350;2023-04-30T01:58:56;19.13;;;11.70;;
2039;SDS011;1025;42.686;23.350;2023-04-30T02:01:26;16.70;;;11.77;;
2039;SDS011;1025;42.686;23.350;2023-04-30T02:03:53;13.47;;;12.07;;
2039;SDS011;1025;42.686;23.350;2023-04-30T02:06:19;14.53;;;12.60;;
2039;SDS011;1025;42.686;23.350;2023-04-30T02:08:46;12.80;;;11.30;;
2039;SDS011;1025;42.686;23.350;2023-04-30T02:11:12;12.00;;;10.90;;
2039;SDS011;1025;42.686;23.350;2023-04-30T02:13:39;14.03;;;11.70;;
2039;SDS011;1025;42.686;23.350;2023-04-30T02:16:05;12.77;;;11.47;;
2039;SDS011;1025;42.686;23.350;2023-04-30T02:18:33;14.20;;;10.80;;
2039;SDS011;1025;42.686;23.350;2023-04-30T02:21:00;16.40;;;11.37;;
2039;SDS011;1025;42.686;23.350;2023-04-30T02:23:26;13.23;;;12.00;;
2039;SDS011;1025;42.686;23.350;2023-04-30T02:25:53;20.90;;;12.43;;
2039;SDS011;1025;42.686;23.350;2023-04-30T02:28:20;13.97;;;12.67;;
2039;SDS011;1025;42.686;23.350;2023-04-30T02:30:46;12.50;;;11.17;;
2039;SDS011;1025;42.686;23.350;2023-04-30T02:33:13;13.17;;;11.73;;
2039;SDS011;1025;42.686;23.350;2023-04-30T02:35:41;15.53;;;12.77;;
2039;SDS011;1025;42.686;23.350;2023-04-30T02:38:08;15.70;;;11.80;;
2039;SDS011;1025;42.686;23.350;2023-04-30T02:40:34;14.23;;;11.80;;
2039;SDS011;1025;42.686;23.350;2023-04-30T02:43:01;12.47;;;11.20;;
2039;SDS011;1025;42.686;23.350;2023-04-30T02:45:27;12.53;;;11.10;;
2039;SDS011;1025;42.686;23.350;2023-04-30T02:47:54;13.83;;;12.07;;
2039;SDS011;1025;42.686;23.350;2023-04-30T02:50:20;12.83;;;11.53;;
2039;SDS011;1025;42.686;23.350;2023-04-30T02:52:48;16.93;;;12.17;;
2039;SDS011;1025;42.686;23.350;2023-04-30T02:55:14;12.03;;;10.80;;
2039;SDS011;1025;42.686;23.350;2023-04-30T02:57:41;14.57;;;11.33;;
2039;SDS011;1025;42.686;23.350;2023-04-30T03:00:08;13.50;;;12.10;;
2039;SDS011;1025;42.686;23.350;2023-04-30T03:02:35;17.27;;;12.53;;
2039;SDS011;1025;42.686;23.350;2023-04-30T03:05:03;17.67;;;12.93;;
2039;SDS011;1025;42.686;23.350;2023-04-30T03:07:29;12.50;;;11.40;;
2039;SDS011;1025;42.686;23.350;2023-04-30T03:09:57;13.23;;;10.63;;
2039;SDS011;1025;42.686;23.350;2023-04-30T03:12:24;12.57;;;11.30;;
2039;SDS011;1025;42.686;23.350;2023-04-30T03:14:51;11.67;;;10.57;;
2039;SDS011;1025;42.686;23.350;2023-04-30T03:17:17;19.20;;;11.10;;
2039;SDS011;1025;42.686;23.350;2023-04-30T03:19:44;13.30;;;11.50;;
2039;SDS011;1025;42.686;23.350;2023-04-30T03:22:10;11.87;;;10.63;;
2039;SDS011;1025;42.686;23.350;2023-04-30T03:24:37;14.43;;;11.33;;
2039;SDS011;1025;42.686;23.350;2023-04-30T03:27:05;15.83;;;12.37;;
2039;SDS011;1025;42.686;23.350;2023-04-30T03:29:31;11.27;;;10.10;;
2039;SDS011;1025;42.686;23.350;2023-04-30T03:31:58;13.83;;;11.10;;
2039;SDS011;1025;42.686;23.350;2023-04-30T03:34:24;17.30;;;11.47;;
2039;SDS011;1025;42.686;23.350;2023-04-30T03:36:51;19.60;;;12.20;;
2039;SDS011;1025;42.686;23.350;2023-04-30T03:39:17;12.13;;;10.80;;
2039;SDS011;1025;42.686;23.350;2023-04-30T03:41:44;16.70;;;11.90;;
2039;SDS011;1025;42.686;23.350;2023-04-30T03:44:12;15.00;;;11.10;;
2039;SDS011;1025;42.686;23.350;2023-04-30T03:46:39;13.77;;;11.23;;
2039;SDS011;1025;42.686;23.350;2023-04-30T03:49:06;15.20;;;10.80;;
2039;SDS011;1025;42.686;23.350;2023-04-30T03:51:33;11.50;;;9.70;;
2039;SDS011;1025;42.686;23.350;2023-04-30T03:54:03;9.97;;;9.07;;
2039;SDS011;1025;42.686;23.350;2023-04-30T03:56:30;9.87;;;8.97;;
2039;SDS011;1025;42.686;23.350;2023-04-30T03:58:56;13.87;;;8.10;;
2039;SDS011;1025;42.686;23.350;2023-04-30T04:01:25;8.33;;;7.63;;
2039;SDS011;1025;42.686;23.350;2023-04-30T04:03:52;9.00;;;8.20;;
2039;SDS011;1025;42.686;23.350;2023-04-30T04:06:19;9.77;;;8.07;;
2039;SDS011;1025;42.686;23.350;2023-04-30T04:08:45;8.07;;;7.27;;
2039;SDS011;1025;42.686;23.350;2023-04-30T04:11:12;8.03;;;7.33;;
2039;SDS011;1025;42.686;23.350;2023-04-30T04:13:39;11.97;;;7.27;;
2039;SDS011;1025;42.686;23.350;2023-04-30T04:16:11;9.10;;;8.20;;
2039;SDS011;1025;42.686;23.350;2023-04-30T04:18:40;9.70;;;8.20;;
2039;SDS011;1025;42.686;23.350;2023-04-30T04:21:07;12.40;;;8.73;;
2039;SDS011;1025;42.686;23.350;2023-04-30T04:23:35;8.00;;;7.20;;
2039;SDS011;1025;42.686;23.350;2023-04-30T04:26:01;8.30;;;7.20;;
2039;SDS011;1025;42.686;23.350;2023-04-30T04:28:28;10.70;;;7.50;;
2039;SDS011;1025;42.686;23.350;2023-04-30T04:30:54;7.37;;;6.67;;
2039;SDS011;1025;42.686;23.350;2023-04-30T04:33:21;10.63;;;8.10;;
2039;SDS011;1025;42.686;23.350;2023-04-30T04:35:51;16.57;;;11.30;;
2039;SDS011;1025;42.686;23.350;2023-04-30T04:38:18;11.87;;;10.70;;
2039;SDS011;1025;42.686;23.350;2023-04-30T04:40:50;25.30;;;17.80;;
2039;SDS011;1025;42.686;23.350;2023-04-30T04:43:16;33.83;;;30.50;;
2039;SDS011;1025;42.686;23.350;2023-04-30T04:45:43;34.93;;;31.43;;
2039;SDS011;1025;42.686;23.350;2023-04-30T04:48:09;38.93;;;33.40;;
2039;SDS011;1025;42.686;23.350;2023-04-30T04:50:36;29.47;;;26.43;;
2039;SDS011;1025;42.686;23.350;2023-04-30T04:53:04;26.50;;;19.97;;
2039;SDS011;1025;42.686;23.350;2023-04-30T04:55:31;17.00;;;14.80;;
2039;SDS011;1025;42.686;23.350;2023-04-30T04:57:57;17.13;;;14.93;;
2039;SDS011;1025;42.686;23.350;2023-04-30T05:00:24;22.40;;;18.20;;
2039;SDS011;1025;42.686;23.350;2023-04-30T05:02:50;18.97;;;16.93;;
2039;SDS011;1025;42.686;23.350;2023-04-30T05:05:17;16.83;;;14.83;;
2039;SDS011;1025;42.686;23.350;2023-04-30T05:07:44;23.47;;;16.77;;
2039;SDS011;1025;42.686;23.350;2023-04-30T05:10:12;19.33;;;17.27;;
2039;SDS011;1025;42.686;23.350;2023-04-30T05:12:39;31.57;;;19.43;;
2039;SDS011;1025;42.686;23.350;2023-04-30T05:15:05;21.30;;;14.40;;
2039;SDS011;1025;42.686;23.350;2023-04-30T05:17:32;17.20;;;13.43;;
2039;SDS011;1025;42.686;23.350;2023-04-30T05:19:59;23.73;;;17.17;;
2039;SDS011;1025;42.686;23.350;2023-04-30T05:22:25;22.70;;;15.87;;
2039;SDS011;1025;42.686;23.350;2023-04-30T05:24:52;15.80;;;12.70;;
2039;SDS011;1025;42.686;23.350;2023-04-30T05:27:19;28.97;;;15.60;;
2039;SDS011;1025;42.686;23.350;2023-04-30T05:29:46;17.47;;;13.73;;
2039;SDS011;1025;42.686;23.350;2023-04-30T05:32:12;16.57;;;13.73;;
2039;SDS011;1025;42.686;23.350;2023-04-30T05:34:39;18.97;;;13.20;;
2039;SDS011;1025;42.686;23.350;2023-04-30T05:37:06;16.47;;;11.80;;
2039;SDS011;1025;42.686;23.350;2023-04-30T05:39:33;16.30;;;12.67;;
2039;SDS011;1025;42.686;23.350;2023-04-30T05:41:59;14.27;;;10.43;;
2039;SDS011;1025;42.686;23.350;2023-04-30T05:44:27;13.73;;;10.13;;
2039;SDS011;1025;42.686;23.350;2023-04-30T05:46:55;13.93;;;10.90;;
2039;SDS011;1025;42.686;23.350;2023-04-30T05:49:21;24.53;;;11.33;;
2039;SDS011;1025;42.686;23.350;2023-04-30T05:51:48;13.87;;;10.10;;
2039;SDS011;1025;42.686;23.350;2023-04-30T05:54:14;14.23;;;8.60;;
2039;SDS011;1025;42.686;23.350;2023-04-30T05:56:41;15.37;;;9.57;;
2039;SDS011;1025;42.686;23.350;2023-04-30T05:59:08;15.23;;;10.70;;
2039;SDS011;1025;42.686;23.350;2023-04-30T06:01:36;9.00;;;8.10;;
2039;SDS011;1025;42.686;23.350;2023-04-30T06:04:03;13.80;;;10.83;;
2039;SDS011;1025;42.686;23.350;2023-04-30T06:06:29;15.43;;;11.37;;
2039;SDS011;1025;42.686;23.350;2023-04-30T06:08:56;13.47;;;12.07;;
2039;SDS011;1025;42.686;23.350;2023-04-30T06:11:22;13.63;;;11.23;;
2039;SDS011;1025;42.686;23.350;2023-04-30T06:13:50;13.07;;;11.77;;
2039;SDS011;1025;42.686;23.350;2023-04-30T06:16:17;13.83;;;12.30;;
2039;SDS011;1025;42.686;23.350;2023-04-30T06:18:44;14.07;;;12.27;;
2039;SDS011;1025;42.686;23.350;2023-04-30T06:21:11;12.40;;;10.90;;
2039;SDS011;1025;42.686;23.350;2023-04-30T06:23:37;17.43;;;11.43;;
2039;SDS011;1025;42.686;23.350;2023-04-30T06:26:04;24.67;;;12.80;;
2039;SDS011;1025;42.686;23.350;2023-04-30T06:28:31;15.23;;;11.20;;
2039;SDS011;1025;42.686;23.350;2023-04-30T06:30:57;24.93;;;12.70;;
2039;SDS011;1025;42.686;23.350;2023-04-30T06:33:24;26.23;;;13.43;;
2039;SDS011;1025;42.686;23.350;2023-04-30T06:35:52;22.37;;;14.83;;
2039;SDS011;1025;42.686;23.350;2023-04-30T06:38:19;22.57;;;13.80;;
2039;SDS011;1025;42.686;23.350;2023-04-30T06:40:46;14.17;;;11.93;;
2039;SDS011;1025;42.686;23.350;2023-04-30T06:43:12;15.20;;;12.77;;
2039;SDS011;1025;42.686;23.350;2023-04-30T06:45:39;16.87;;;11.60;;
2039;SDS011;1025;42.686;23.350;2023-04-30T06:48:05;12.90;;;11.03;;
2039;SDS011;1025;42.686;23.350;2023-04-30T06:50:32;15.07;;;9.93;;
2039;SDS011;1025;42.686;23.350;2023-04-30T06:53:00;20.40;;;13.17;;
2039;SDS011;1025;42.686;23.350;2023-04-30T06:55:27;14.50;;;12.07;;
2039;SDS011;1025;42.686;23.350;2023-04-30T06:57:53;15.30;;;13.53;;
2039;SDS011;1025;42.686;23.350;2023-04-30T07:00:21;14.57;;;13.07;;
2039;SDS011;1025;42.686;23.350;2023-04-30T07:02:48;13.57;;;11.80;;
2039;SDS011;1025;42.686;23.350;2023-04-30T07:05:16;12.80;;;11.57;;
2039;SDS011;1025;42.686;23.350;2023-04-30T07:07:42;14.37;;;12.87;;
2039;SDS011;1025;42.686;23.350;2023-04-30T07:10:10;13.03;;;11.83;;
2039;SDS011;1025;42.686;23.350;2023-04-30T07:12:37;14.17;;;12.53;;
2039;SDS011;1025;42.686;23.350;2023-04-30T07:15:04;13.63;;;12.23;;
2039;SDS011;1025;42.686;23.350;2023-04-30T07:17:31;15.80;;;13.20;;
2039;SDS011;1025;42.686;23.350;2023-04-30T07:19:57;15.50;;;11.87;;
2039;SDS011;1025;42.686;23.350;2023-04-30T07:22:24;20.40;;;13.23;;
2039;SDS011;1025;42.686;23.350;2023-04-30T07:24:51;11.47;;;10.33;;
2039;SDS011;1025;42.686;23.350;2023-04-30T07:27:20;12.20;;;10.00;;
2039;SDS011;1025;42.686;23.350;2023-04-30T07:29:46;11.73;;;10.53;;
2039;SDS011;1025;42.686;23.350;2023-04-30T07:32:13;18.60;;;13.73;;
2039;SDS011;1025;42.686;23.350;2023-04-30T07:34:40;17.43;;;13.67;;
2039;SDS011;1025;42.686;23.350;2023-04-30T07:37:07;17.93;;;11.37;;
2039;SDS011;1025;42.686;23.350;2023-04-30T07:39:33;16.63;;;12.97;;
2039;SDS011;1025;42.686;23.350;2023-04-30T07:42:00;13.97;;;10.17;;
2039;SDS011;1025;42.686;23.350;2023-04-30T07:44:28;14.83;;;12.17;;
2039;SDS011;1025;42.686;23.350;2023-04-30T07:46:55;18.20;;;9.90;;
2039;SDS011;1025;42.686;23.350;2023-04-30T07:49:21;12.60;;;9.17;;
2039;SDS011;1025;42.686;23.350;2023-04-30T07:51:48;9.73;;;8.60;;
2039;SDS011;1025;42.686;23.350;2023-04-30T07:54:14;16.67;;;13.33;;
2039;SDS011;1025;42.686;23.350;2023-04-30T07:56:41;10.73;;;9.03;;
2039;SDS011;1025;42.686;23.350;2023-04-30T07:59:07;15.03;;;10.23;;
2039;SDS011;1025;42.686;23.350;2023-04-30T08:01:35;10.60;;;8.97;;
2039;SDS011;1025;42.686;23.350;2023-04-30T08:04:02;11.53;;;8.93;;
2039;SDS011;1025;42.686;23.350;2023-04-30T08:06:29;18.10;;;8.53;;
2039;SDS011;1025;42.686;23.350;2023-04-30T08:08:55;11.70;;;7.20;;
2039;SDS011;1025;42.686;23.350;2023-04-30T08:11:22;5.87;;;5.47;;
2039;SDS011;1025;42.686;23.350;2023-04-30T08:13:48;10.90;;;6.50;;
2039;SDS011;1025;42.686;23.350;2023-04-30T08:16:15;9.70;;;6.60;;
2039;SDS011;1025;42.686;23.350;2023-04-30T08:18:43;7.60;;;6.73;;
2039;SDS011;1025;42.686;23.350;2023-04-30T08:21:10;7.03;;;5.23;;
2039;SDS011;1025;42.686;23.350;2023-04-30T08:23:37;6.60;;;5.30;;
2039;SDS011;1025;42.686;23.350;2023-04-30T08:26:04;9.97;;;6.40;;
2039;SDS011;1025;42.686;23.350;2023-04-30T08:28:30;8.17;;;5.23;;
2039;SDS011;1025;42.686;23.350;2023-04-30T08:30:57;13.00;;;5.30;;
2039;SDS011;1025;42.686;23.350;2023-04-30T08:33:24;8.80;;;5.07;;
2039;SDS011;1025;42.686;23.350;2023-04-30T08:35:51;7.27;;;6.20;;
2039;SDS011;1025;42.686;23.350;2023-04-30T08:38:18;7.60;;;5.10;;
2039;SDS011;1025;42.686;23.350;2023-04-30T08:40:46;17.73;;;7.40;;
2039;SDS011;1025;42.686;23.350;2023-04-30T08:43:14;7.10;;;5.17;;
2039;SDS011;1025;42.686;23.350;2023-04-30T08:45:40;10.57;;;5.40;;
2039;SDS011;1025;42.686;23.350;2023-04-30T08:48:08;5.80;;;4.80;;
2039;SDS011;1025;42.686;23.350;2023-04-30T08:50:36;7.57;;;6.97;;
2039;SDS011;1025;42.686;23.350;2023-04-30T08:53:04;14.77;;;6.30;;
2039;SDS011;1025;42.686;23.350;2023-04-30T08:55:31;6.30;;;5.07;;
2039;SDS011;1025;42.686;23.350;2023-04-30T08:57:59;8.93;;;5.60;;
2039;SDS011;1025;42.686;23.350;2023-04-30T09:00:25;9.57;;;5.37;;
2039;SDS011;1025;42.686;23.350;2023-04-30T09:02:52;4.63;;;3.90;;
2039;SDS011;1025;42.686;23.350;2023-04-30T09:05:18;10.07;;;7.33;;
2039;SDS011;1025;42.686;23.350;2023-04-30T09:07:45;4.57;;;4.20;;
2039;SDS011;1025;42.686;23.350;2023-04-30T09:10:17;5.83;;;4.90;;
2039;SDS011;1025;42.686;23.350;2023-04-30T09:12:43;9.30;;;4.77;;
2039;SDS011;1025;42.686;23.350;2023-04-30T09:15:11;13.13;;;8.90;;
2039;SDS011;1025;42.686;23.350;2023-04-30T09:17:37;7.30;;;4.67;;
2039;SDS011;1025;42.686;23.350;2023-04-30T09:20:06;8.70;;;4.20;;
2039;SDS011;1025;42.686;23.350;2023-04-30T09:22:33;4.23;;;3.30;;
2039;SDS011;1025;42.686;23.350;2023-04-30T09:25:00;3.77;;;3.57;;
2039;SDS011;1025;42.686;23.350;2023-04-30T09:27:28;6.90;;;4.93;;
2039;SDS011;1025;42.686;23.350;2023-04-30T09:29:54;4.90;;;4.60;;
2039;SDS011;1025;42.686;23.350;2023-04-30T09:32:21;6.03;;;3.77;;
2039;SDS011;1025;42.686;23.350;2023-04-30T09:34:47;5.77;;;3.63;;
2039;SDS011;1025;42.686;23.350;2023-04-30T09:37:14;6.67;;;4.77;;
2039;SDS011;1025;42.686;23.350;2023-04-30T09:39:47;3.70;;;3.47;;
2039;SDS011;1025;42.686;23.350;2023-04-30T09:42:15;4.23;;;3.83;;
2039;SDS011;1025;42.686;23.350;2023-04-30T09:44:43;5.60;;;4.03;;
2039;SDS011;1025;42.686;23.350;2023-04-30T09:47:10;6.10;;;3.90;;
2039;SDS011;1025;42.686;23.350;2023-04-30T09:49:38;5.70;;;5.20;;
2039;SDS011;1025;42.686;23.350;2023-04-30T09:52:06;3.50;;;3.23;;
2039;SDS011;1025;42.686;23.350;2023-04-30T09:54:33;4.30;;;4.00;;
2039;SDS011;1025;42.686;23.350;2023-04-30T09:57:01;4.60;;;3.40;;
2039;SDS011;1025;42.686;23.350;2023-04-30T09:59:28;4.13;;;3.83;;
2039;SDS011;1025;42.686;23.350;2023-04-30T10:01:58;4.60;;;4.20;;
2039;SDS011;1025;42.686;23.350;2023-04-30T10:04:25;5.40;;;4.53;;
2039;SDS011;1025;42.686;23.350;2023-04-30T10:06:52;8.60;;;4.50;;
2039;SDS011;1025;42.686;23.350;2023-04-30T10:09:20;6.40;;;3.70;;
2039;SDS011;1025;42.686;23.350;2023-04-30T10:11:47;6.97;;;3.30;;
2039;SDS011;1025;42.686;23.350;2023-04-30T10:14:14;3.83;;;3.50;;
2039;SDS011;1025;42.686;23.350;2023-04-30T10:16:44;5.50;;;4.67;;
2039;SDS011;1025;42.686;23.350;2023-04-30T10:19:14;3.80;;;3.50;;
2039;SDS011;1025;42.686;23.350;2023-04-30T10:21:44;4.40;;;4.10;;
2039;SDS011;1025;42.686;23.350;2023-04-30T10:24:11;4.50;;;4.10;;
2039;SDS011;1025;42.686;23.350;2023-04-30T10:26:39;7.50;;;3.33;;
2039;SDS011;1025;42.686;23.350;2023-04-30T10:29:06;5.90;;;3.70;;
2039;SDS011;1025;42.686;23.350;2023-04-30T10:31:32;10.73;;;4.77;;
2039;SDS011;1025;42.686;23.350;2023-04-30T10:34:02;3.90;;;3.70;;
2039;SDS011;1025;42.686;23.350;2023-04-30T10:36:35;4.30;;;3.90;;
2039;SDS011;1025;42.686;23.350;2023-04-30T10:39:02;7.83;;;4.20;;
2039;SDS011;1025;42.686;23.350;2023-04-30T10:41:30;4.23;;;3.93;;
2039;SDS011;1025;42.686;23.350;2023-04-30T10:43:56;6.80;;;6.20;;
2039;SDS011;1025;42.686;23.350;2023-04-30T10:46:24;9.40;;;5.73;;
2039;SDS011;1025;42.686;23.350;2023-04-30T10:48:51;8.30;;;7.70;;
2039;SDS011;1025;42.686;23.350;2023-04-30T10:51:19;5.37;;;4.83;;
2039;SDS011;1025;42.686;23.350;2023-04-30T10:53:47;6.30;;;4.73;;
2039;SDS011;1025;42.686;23.350;2023-04-30T10:56:15;5.77;;;4.67;;
2039;SDS011;1025;42.686;23.350;2023-04-30T10:58:57;7.23;;;5.00;;
2039;SDS011;1025;42.686;23.350;2023-04-30T11:01:23;4.30;;;3.60;;
2039;SDS011;1025;42.686;23.350;2023-04-30T11:04:02;5.50;;;5.03;;
2039;SDS011;1025;42.686;23.350;2023-04-30T11:06:47;4.00;;;3.70;;
2039;SDS011;1025;42.686;23.350;2023-04-30T11:09:15;5.00;;;4.63;;
2039;SDS011;1025;42.686;23.350;2023-04-30T11:11:42;23.50;;;7.30;;
2039;SDS011;1025;42.686;23.350;2023-04-30T11:14:10;22.93;;;6.07;;
2039;SDS011;1025;42.686;23.350;2023-04-30T11:16:36;8.07;;;4.37;;
2039;SDS011;1025;42.686;23.350;2023-04-30T11:19:09;10.60;;;5.57;;
2039;SDS011;1025;42.686;23.350;2023-04-30T11:21:38;5.30;;;3.70;;
2039;SDS011;1025;42.686;23.350;2023-04-30T11:24:05;11.70;;;3.80;;
2039;SDS011;1025;42.686;23.350;2023-04-30T11:29:14;10.93;;;4.73;;
2039;SDS011;1025;42.686;23.350;2023-04-30T11:31:41;21.10;;;7.40;;
2039;SDS011;1025;42.686;23.350;2023-04-30T11:34:08;4.53;;;2.60;;
2039;SDS011;1025;42.686;23.350;2023-04-30T11:36:35;3.00;;;2.80;;
2039;SDS011;1025;42.686;23.350;2023-04-30T11:39:02;6.17;;;3.80;;
2039;SDS011;1025;42.686;23.350;2023-04-30T11:41:30;10.43;;;3.90;;
2039;SDS011;1025;42.686;23.350;2023-04-30T11:43:56;2.83;;;2.63;;
2039;SDS011;1025;42.686;23.350;2023-04-30T11:46:24;3.97;;;3.00;;
2039;SDS011;1025;42.686;23.350;2023-04-30T11:48:52;4.50;;;4.13;;
2039;SDS011;1025;42.686;23.350;2023-04-30T11:51:19;5.30;;;3.73;;
2039;SDS011;1025;42.686;23.350;2023-04-30T11:53:46;3.60;;;3.33;;
2039;SDS011;1025;42.686;23.350;2023-04-30T11:56:16;3.00;;;2.80;;
2039;SDS011;1025;42.686;23.350;2023-04-30T11:58:44;4.17;;;3.80;;
2039;SDS011;1025;42.686;23.350;2023-04-30T12:01:11;3.77;;;3.47;;
2039;SDS011;1025;42.686;23.350;2023-04-30T12:03:43;4.50;;;3.63;;
2039;SDS011;1025;42.686;23.350;2023-04-30T12:06:10;4.83;;;3.10;;
2039;SDS011;1025;42.686;23.350;2023-04-30T12:08:37;3.77;;;3.47;;
2039;SDS011;1025;42.686;23.350;2023-04-30T12:11:04;16.87;;;5.40;;
2039;SDS011;1025;42.686;23.350;2023-04-30T12:13:32;2.90;;;2.70;;
2039;SDS011;1025;42.686;23.350;2023-04-30T12:15:59;4.20;;;3.90;;
2039;SDS011;1025;42.686;23.350;2023-04-30T12:18:25;7.10;;;4.77;;
2039;SDS011;1025;42.686;23.350;2023-04-30T12:20:53;4.10;;;3.70;;
2039;SDS011;1025;42.686;23.350;2023-04-30T12:23:20;4.30;;;3.37;;
2039;SDS011;1025;42.686;23.350;2023-04-30T12:25:47;4.80;;;4.40;;
2039;SDS011;1025;42.686;23.350;2023-04-30T12:28:14;3.80;;;3.50;;
2039;SDS011;1025;42.686;23.350;2023-04-30T12:30:40;3.47;;;3.27;;
2039;SDS011;1025;42.686;23.350;2023-04-30T12:33:08;3.33;;;3.13;;
2039;SDS011;1025;42.686;23.350;2023-04-30T12:35:35;3.73;;;3.53;;
2039;SDS011;1025;42.686;23.350;2023-04-30T12:38:05;2.77;;;2.67;;
2039;SDS011;1025;42.686;23.350;2023-04-30T12:40:32;10.40;;;4.40;;
2039;SDS011;1025;42.686;23.350;2023-04-30T12:42:59;2.80;;;2.70;;
2039;SDS011;1025;42.686;23.350;2023-04-30T12:45:42;10.00;;;4.13;;
2039;SDS011;1025;42.686;23.350;2023-04-30T12:48:08;3.40;;;3.13;;
2039;SDS011;1025;42.686;23.350;2023-04-30T12:50:35;4.23;;;3.60;;
2039;SDS011;1025;42.686;23.350;2023-04-30T12:53:03;3.40;;;3.20;;
2039;SDS011;1025;42.686;23.350;2023-04-30T12:55:31;3.93;;;3.60;;
2039;SDS011;1025;42.686;23.350;2023-04-30T12:58:02;3.80;;;3.53;;
2039;SDS011;1025;42.686;23.350;2023-04-30T13:00:41;3.03;;;2.77;;
2039;SDS011;1025;42.686;23.350;2023-04-30T13:03:08;4.00;;;3.70;;
2039;SDS011;1025;42.686;23.350;2023-04-30T13:05:34;7.93;;;3.60;;
2039;SDS011;1025;42.686;23.350;2023-04-30T13:08:01;4.10;;;3.80;;
2039;SDS011;1025;42.686;23.350;2023-04-30T13:10:31;3.40;;;3.20;;
2039;SDS011;1025;42.686;23.350;2023-04-30T13:12:58;3.47;;;3.27;;
2039;SDS011;1025;42.686;23.350;2023-04-30T13:15:24;4.60;;;3.33;;
2039;SDS011;1025;42.686;23.350;2023-04-30T13:17:51;4.17;;;3.80;;
2039;SDS011;1025;42.686;23.350;2023-04-30T13:20:18;3.77;;;3.37;;
2039;SDS011;1025;42.686;23.350;2023-04-30T13:22:44;3.03;;;2.83;;
2039;SDS011;1025;42.686;23.350;2023-04-30T13:25:11;3.47;;;3.20;;
2039;SDS011;1025;42.686;23.350;2023-04-30T13:27:39;6.40;;;4.43;;
2039;SDS011;1025;42.686;23.350;2023-04-30T13:30:06;6.33;;;2.93;;
2039;SDS011;1025;42.686;23.350;2023-04-30T13:32:33;4.07;;;3.40;;
2039;SDS011;1025;42.686;23.350;2023-04-30T13:34:59;3.33;;;3.13;;
2039;SDS011;1025;42.686;23.350;2023-04-30T13:37:26;3.27;;;3.03;;
2039;SDS011;1025;42.686;23.350;2023-04-30T13:39:52;3.23;;;3.03;;
2039;SDS011;1025;42.686;23.350;2023-04-30T13:42:19;4.60;;;4.20;;
2039;SDS011;1025;42.686;23.350;2023-04-30T13:44:47;2.97;;;2.77;;
2039;SDS011;1025;42.686;23.350;2023-04-30T13:47:14;7.07;;;2.60;;
2039;SDS011;1025;42.686;23.350;2023-04-30T13:49:40;5.30;;;4.80;;
2039;SDS011;1025;42.686;23.350;2023-04-30T13:52:07;6.17;;;4.20;;
2039;SDS011;1025;42.686;23.350;2023-04-30T13:54:33;2.83;;;2.73;;
2039;SDS011;1025;42.686;23.350;2023-04-30T13:57:01;8.13;;;4.30;;
2039;SDS011;1025;42.686;23.350;2023-04-30T13:59:28;6.53;;;3.80;;
2039;SDS011;1025;42.686;23.350;2023-04-30T14:01:57;9.27;;;3.07;;
2039;SDS011;1025;42.686;23.350;2023-04-30T14:04:23;3.07;;;2.87;;
2039;SDS011;1025;42.686;23.350;2023-04-30T14:06:50;5.57;;;4.27;;
2039;SDS011;1025;42.686;23.350;2023-04-30T14:09:20;4.40;;;3.57;;
2039;SDS011;1025;42.686;23.350;2023-04-30T14:11:47;5.10;;;3.40;;
2039;SDS011;1025;42.686;23.350;2023-04-30T14:14:13;6.60;;;4.10;;
2039;SDS011;1025;42.686;23.350;2023-04-30T14:16:40;3.50;;;2.80;;
2039;SDS011;1025;42.686;23.350;2023-04-30T14:19:08;3.90;;;2.83;;
2039;SDS011;1025;42.686;23.350;2023-04-30T14:21:34;4.20;;;2.90;;
2039;SDS011;1025;42.686;23.350;2023-04-30T14:24:01;3.93;;;3.40;;
2039;SDS011;1025;42.686;23.350;2023-04-30T14:26:27;7.87;;;3.77;;
2039;SDS011;1025;42.686;23.350;2023-04-30T14:28:54;6.97;;;2.80;;
2039;SDS011;1025;42.686;23.350;2023-04-30T14:31:21;3.03;;;2.80;;
2039;SDS011;1025;42.686;23.350;2023-04-30T14:33:47;3.00;;;2.80;;
2039;SDS011;1025;42.686;23.350;2023-04-30T14:36:15;5.37;;;2.90;;
2039;SDS011;1025;42.686;23.350;2023-04-30T14:38:42;2.67;;;2.47;;
2039;SDS011;1025;42.686;23.350;2023-04-30T14:41:09;3.57;;;2.77;;
2039;SDS011;1025;42.686;23.350;2023-04-30T14:43:35;4.57;;;3.27;;
2039;SDS011;1025;42.686;23.350;2023-04-30T14:46:02;3.67;;;3.33;;
2039;SDS011;1025;42.686;23.350;2023-04-30T14:48:28;3.63;;;3.33;;
2039;SDS011;1025;42.686;23.350;2023-04-30T14:50:55;3.03;;;2.60;;
2039;SDS011;1025;42.686;23.350;2023-04-30T14:53:23;3.10;;;3.00;;
2039;SDS011;1025;42.686;23.350;2023-04-30T14:55:49;2.90;;;2.70;;